Time;durP1;ratioP1;P1;durP2;ratioP2;P2;SDS_P1;SDS_P2;PMS_P1;PMS_P2;Temp;Humidity;BMP_temperature;BMP_pressure;BME280_temperature;BME280_humidity;BME280_pressure;Samples;Min_cycle;Max_cycle;Signal;HPM_P1;HPM_P2
2022/12/15 00:41:09;;;;;;;45.00;26.10;;;;;;;-3.89;86.54;99238.27;101873;1313;95691;-63
2022/12/15 00:43:44;;;;;;;44.40;24.90;;;;;;;-3.86;86.66;99235.20;101966;1315;80183;-60
2022/12/15 00:50:50;;;;;;;47.60;24.90;;;;;;;-3.78;86.59;99228.60;101974;1313;99264;-60
2022/12/15 01:21:01;;;;;;;43.60;24.20;;;;;;;-3.80;86.63;99226.66;101909;1314;88844;-61
2022/12/15 01:23:39;;;;;;;45.30;24.60;;;;;;;-3.76;86.70;99225.96;101639;1315;416899;-60
2022/12/15 01:26:13;;;;;;;42.10;24.00;;;;;;;-3.71;86.40;99220.45;101952;1314;81235;-59
2022/12/15 01:28:47;;;;;;;44.10;25.00;;;;;;;-3.68;86.55;99221.39;101975;1314;82396;-60
2022/12/15 01:31:21;;;;;;;37.80;23.80;;;;;;;-3.63;86.81;99217.62;101884;1317;99267;-59
2022/12/15 01:33:58;;;;;;;41.70;24.10;;;;;;;-3.63;86.39;99218.52;101927;1313;86785;-60
2022/12/15 01:36:32;;;;;;;43.50;25.00;;;;;;;-3.65;86.57;99222.38;101889;1313;93449;-60
2022/12/15 01:39:09;;;;;;;39.10;23.70;;;;;;;-3.68;86.26;99220.31;101883;1313;78881;-61
2022/12/15 01:41:45;;;;;;;45.10;26.00;;;;;;;-3.69;86.34;99221.27;101905;1315;81465;-63
2022/12/15 01:44:22;;;;;;;37.50;20.60;;;;;;;-3.65;86.41;99225.19;101913;1313;98407;-61
2022/12/15 01:46:58;;;;;;;45.40;25.00;;;;;;;-3.65;86.48;99223.58;101902;1317;88931;-61
2022/12/15 01:49:34;;;;;;;44.20;24.40;;;;;;;-3.68;86.38;99224.59;101871;1317;95707;-60
2022/12/15 01:52:12;;;;;;;43.10;24.80;;;;;;;-3.73;86.41;99223.23;101890;1315;82583;-60
2022/12/15 01:54:54;;;;;;;43.60;25.10;;;;;;;-3.75;86.47;99226.04;101913;1313;80140;-61
2022/12/15 01:57:35;;;;;;;45.70;25.10;;;;;;;-3.78;86.46;99221.19;101918;1315;99378;-62
2022/12/15 02:00:13;;;;;;;42.50;24.10;;;;;;;-3.76;86.43;99220.69;101912;1316;88156;-59
2022/12/15 02:02:50;;;;;;;46.20;25.90;;;;;;;-3.75;86.22;99218.83;101907;1314;94205;-58
2022/12/15 02:05:27;;;;;;;43.30;24.40;;;;;;;-3.78;86.38;99215.73;101879;1314;81362;-61
2022/12/15 02:08:02;;;;;;;45.30;26.40;;;;;;;-3.79;86.46;99211.37;101942;1313;82026;-59
2022/12/15 02:10:57;;;;;;;47.00;27.30;;;;;;;-3.75;86.31;99207.04;101930;1313;99082;-59
2022/12/15 02:13:40;;;;;;;46.30;26.70;;;;;;;-3.74;86.38;99207.30;101994;1313;87993;-60
2022/12/15 02:16:24;;;;;;;45.40;26.10;;;;;;;-3.74;86.15;99208.57;102022;1317;95725;-60
2022/12/15 02:19:18;;;;;;;40.20;24.30;;;;;;;-3.79;86.41;99211.26;102000;1317;80570;-59
2022/12/15 02:22:18;;;;;;;45.30;23.60;;;;;;;-3.81;86.22;99220.35;101919;1313;82775;-60
2022/12/15 02:25:52;;;;;;;44.50;24.80;;;;;;;-3.82;86.39;99224.85;101916;1315;99916;-59
2022/12/15 02:28:45;;;;;;;44.30;23.60;;;;;;;-3.88;86.27;99224.84;101917;1315;89131;-60
2022/12/15 02:34:27;;;;;;;44.20;23.40;;;;;;;-3.91;86.14;99229.18;101861;1315;81789;-62
2022/12/15 02:37:06;;;;;;;44.20;24.30;;;;;;;-3.98;86.29;99230.98;101877;1313;80722;-62
2022/12/15 02:39:43;;;;;;;46.50;25.00;;;;;;;-4.03;86.23;99227.36;101855;1313;100804;-60
2022/12/15 02:42:17;;;;;;;;;;;;;;;-4.06;86.18;99224.90;101956;1317;88671;-60
2022/12/15 02:45:00;;;;;;;46.00;24.20;;;;;;;-4.09;86.29;99227.18;101898;1312;94885;-61
2022/12/15 02:47:46;;;;;;;51.00;26.10;;;;;;;-4.15;86.17;99229.71;101921;1315;78099;-60
2022/12/15 02:50:58;;;;;;;47.50;25.50;;;;;;;-4.17;86.45;99232.77;101948;1315;81185;-61
2022/12/15 02:54:10;;;;;;;41.80;23.50;;;;;;;-4.17;86.42;99236.25;101805;1317;98064;-61
2022/12/15 02:56:56;;;;;;;53.00;28.80;;;;;;;-4.14;86.51;99234.93;101977;1317;88776;-62
2022/12/15 02:59:43;;;;;;;41.80;23.50;;;;;;;-4.11;86.48;99237.36;101977;1311;95708;-59
2022/12/15 03:02:30;;;;;;;54.20;30.50;;;;;;;-4.11;86.53;99241.52;101954;1317;80058;-60
2022/12/15 03:05:05;;;;;;;57.80;30.60;;;;;;;-4.10;86.30;99244.77;101926;1313;82013;-58
2022/12/15 03:07:41;;;;;;;71.70;36.90;;;;;;;-4.12;86.59;99241.67;101920;1317;97696;-59
2022/12/15 03:10:18;;;;;;;52.90;29.20;;;;;;;-4.09;86.82;99235.62;101907;1313;87465;-59
2022/12/15 03:12:53;;;;;;;54.10;29.80;;;;;;;-4.08;86.70;99237.46;101934;1315;93088;-59
2022/12/15 03:15:27;;;;;;;55.10;30.30;;;;;;;-4.08;86.67;99235.17;101884;1313;80830;-59
2022/12/15 03:18:01;;;;;;;58.70;31.80;;;;;;;-4.07;86.98;99238.64;101868;1313;81910;-60
2022/12/15 03:20:34;;;;;;;;;;;;;;;-4.09;86.88;99233.79;101918;1317;96370;-60
2022/12/15 03:23:12;;;;;;;56.80;30.40;;;;;;;-4.09;86.68;99239.29;101934;1316;87549;-61
2022/12/15 03:25:53;;;;;;;51.20;27.70;;;;;;;-4.09;86.74;99244.54;101898;1313;95091;-62
2022/12/15 03:28:38;;;;;;;50.60;27.90;;;;;;;-4.09;86.59;99241.37;101940;1313;81147;-58
2022/12/15 03:31:18;;;;;;;47.40;25.20;;;;;;;-4.06;86.77;99242.54;101911;1314;82218;-59
2022/12/15 03:34:01;;;;;;;46.60;26.30;;;;;;;-4.06;86.71;99246.02;101953;1313;99785;-60
2022/12/15 03:36:42;;;;;;;48.30;25.90;;;;;;;-4.00;86.76;99254.66;101951;1313;88404;-61
2022/12/15 03:39:18;;;;;;;48.50;27.10;;;;;;;-3.98;86.87;99258.39;101956;1317;94342;-60
2022/12/15 03:41:56;;;;;;;57.80;30.70;;;;;;;-3.95;86.90;99257.61;101924;1313;80785;-60
2022/12/15 03:44:33;;;;;;;63.80;34.30;;;;;;;-3.91;87.17;99262.77;101955;1314;83432;-59
2022/12/15 03:47:09;;;;;;;67.60;36.50;;;;;;;-3.91;87.22;99261.30;101900;1313;100073;-59
2022/12/15 03:49:43;;;;;;;61.30;31.40;;;;;;;-3.89;86.93;99265.05;101943;1311;89048;-61
2022/12/15 03:52:20;;;;;;;61.30;34.80;;;;;;;-3.91;87.07;99269.59;101916;1315;95643;-62
2022/12/15 03:54:54;;;;;;;57.50;29.70;;;;;;;-3.92;86.94;99268.48;101905;1315;79370;-60
2022/12/15 03:57:29;;;;;;;49.00;27.40;;;;;;;-3.92;86.91;99268.25;101935;1315;81673;-60
2022/12/15 04:00:04;;;;;;;71.20;33.40;;;;;;;-3.94;86.78;99265.81;101890;1313;98637;-59
2022/12/15 04:02:39;;;;;;;83.40;38.30;;;;;;;-3.96;86.73;99268.95;101887;1313;87932;-60
2022/12/15 04:05:21;;;;;;;54.50;28.90;;;;;;;-3.95;86.63;99270.64;101901;1313;94416;-60
2022/12/15 04:08:01;;;;;;;62.60;31.70;;;;;;;-3.93;86.64;99274.17;101899;1313;79971;-59
2022/12/15 04:10:37;;;;;;;73.20;37.50;;;;;;;-3.89;86.79;99274.66;101925;1311;82729;-59
2022/12/15 04:13:13;;;;;;;128.30;54.50;;;;;;;-3.87;86.69;99271.05;101934;1313;99521;-59
2022/12/15 04:15:51;;;;;;;93.90;42.90;;;;;;;-3.87;86.80;99268.73;101894;1313;86958;-58
2022/12/15 04:18:29;;;;;;;125.10;58.60;;;;;;;-3.85;86.95;99271.17;101932;1317;95025;-61
2022/12/15 04:21:05;;;;;;;90.40;44.90;;;;;;;-3.81;86.93;99275.77;101902;1317;79595;-61
2022/12/15 05:33:33;;;;;;;66.20;36.20;;;;;;;-3.74;87.18;99355.73;101934;1314;82023;-61
2022/12/15 05:36:10;;;;;;;72.60;36.80;;;;;;;-3.70;87.46;99363.16;101892;1313;81549;-58
2022/12/15 05:38:44;;;;;;;73.70;38.90;;;;;;;-3.67;87.49;99370.98;101925;1313;99798;-59
2022/12/15 05:41:22;;;;;;;71.10;38.40;;;;;;;-3.64;87.49;99376.36;101893;1317;87831;-59
2022/12/15 05:43:59;;;;;;;78.30;39.50;;;;;;;-3.62;87.30;99383.39;101902;1311;95012;-60
2022/12/15 05:46:32;;;;;;;72.10;37.70;;;;;;;-3.60;87.30;99385.17;101885;1313;79768;-61
2022/12/15 05:49:13;;;;;;;69.70;37.50;;;;;;;-3.61;87.26;99389.51;101901;1313;83019;-60
2022/12/15 05:51:49;;;;;;;63.70;34.90;;;;;;;-3.64;87.36;99395.21;101946;1316;97641;-59
2022/12/15 05:54:23;;;;;;;59.10;33.60;;;;;;;-3.67;87.32;99398.58;101937;1313;87278;-61
2022/12/15 05:56:58;;;;;;;57.70;31.30;;;;;;;-3.67;87.05;99399.52;101917;1313;93424;-61
2022/12/15 05:59:32;;;;;;;59.40;31.90;;;;;;;-3.70;87.20;99403.13;101944;1313;81131;-60
2022/12/15 06:02:06;;;;;;;53.70;29.70;;;;;;;-3.71;87.16;99408.98;101937;1315;82997;-60
2022/12/15 06:04:47;;;;;;;55.60;31.00;;;;;;;-3.70;87.35;99415.02;101934;1314;98634;-62
2022/12/15 06:07:23;;;;;;;51.80;29.00;;;;;;;-3.65;87.42;99420.27;101979;1313;88322;-60
2022/12/15 06:10:01;;;;;;;55.60;30.30;;;;;;;-3.58;87.38;99426.95;101917;1313;95734;-59
2022/12/15 06:12:42;;;;;;;52.90;29.60;;;;;;;-3.52;87.48;99431.95;101950;1313;80267;-62
2022/12/15 06:15:18;;;;;;;55.60;28.80;;;;;;;-3.44;87.35;99433.36;101970;1314;82286;-59
2022/12/15 06:17:55;;;;;;;53.80;30.00;;;;;;;-3.44;87.15;99441.99;101952;1314;98981;-59
2022/12/15 06:20:31;;;;;;;51.30;29.10;;;;;;;-3.45;86.93;99449.61;101904;1313;87440;-59
2022/12/15 15:07:22;;;;;;;58.00;22.10;;;;;;;-4.44;86.78;100076.23;99205;1352;602364;-62
2022/12/15 15:09:57;;;;;;;72.00;26.00;;;;;;;-4.48;86.84;100074.90;101304;1323;81038;-59
2022/12/15 15:12:44;;;;;;;76.40;28.00;;;;;;;-4.44;86.99;100073.73;101351;1324;81714;-59
2022/12/15 15:15:24;;;;;;;75.70;30.50;;;;;;;-4.41;86.99;100078.29;101533;1319;97333;-61
2022/12/15 15:18:07;;;;;;;93.10;35.90;;;;;;;-4.33;87.47;100085.98;101506;1319;86812;-61
2022/12/15 15:20:50;;;;;;;82.50;31.90;;;;;;;-4.22;87.00;100091.22;101181;1320;510340;-63
2022/12/15 15:23:24;;;;;;;78.80;31.00;;;;;;;-4.13;87.22;100095.23;101693;1317;80385;-60
2022/12/15 15:26:24;;;;;;;77.70;30.90;;;;;;;-4.02;87.01;100093.95;101700;1317;83028;-60
2022/12/15 15:29:00;;;;;;;74.20;31.30;;;;;;;-3.97;87.12;100102.06;101933;1314;95034;-59
2022/12/15 15:31:40;;;;;;;63.30;26.40;;;;;;;-3.89;86.95;100103.94;101907;1317;87162;-59
2022/12/15 15:34:15;;;;;;;72.20;29.00;;;;;;;-3.85;86.70;100104.90;101916;1313;95021;-60
2022/12/15 15:36:49;;;;;;;69.10;28.40;;;;;;;-3.83;86.87;100104.16;101932;1315;82124;-60
2022/12/15 15:39:28;;;;;;;101.60;43.60;;;;;;;-3.75;86.65;100106.60;101993;1313;82456;-60
2022/12/15 15:42:14;;;;;;;80.90;34.00;;;;;;;-3.71;86.65;100104.75;102039;1313;97368;-60
2022/12/15 15:44:53;;;;;;;68.50;28.50;;;;;;;-3.74;86.65;100107.98;102015;1313;86751;-59
2022/12/15 15:47:31;;;;;;;64.60;29.20;;;;;;;-3.77;86.60;100107.66;102018;1313;96284;-59
2022/12/15 15:50:12;;;;;;;61.80;25.60;;;;;;;-3.77;86.34;100112.37;102032;1310;78707;-59
2022/12/15 15:52:48;;;;;;;62.40;25.80;;;;;;;-3.81;86.42;100114.46;102071;1313;83248;-61
2022/12/15 15:55:28;;;;;;;62.30;27.20;;;;;;;-3.87;86.38;100124.88;101996;1313;96511;-61
2022/12/15 15:58:05;;;;;;;73.40;30.80;;;;;;;-3.89;86.28;100141.91;102011;1314;85937;-60
2022/12/15 16:00:42;;;;;;;76.90;31.30;;;;;;;-3.92;86.32;100150.89;101985;1311;92966;-60
2022/12/15 16:03:16;;;;;;;77.30;33.60;;;;;;;-3.92;86.51;100151.92;102022;1313;80670;-60
2022/12/15 16:05:56;;;;;;;64.30;28.70;;;;;;;-3.92;86.75;100148.78;101981;1313;84005;-60
2022/12/15 16:08:39;;;;;;;63.30;26.30;;;;;;;-3.87;86.79;100146.35;101924;1317;98932;-64
2022/12/15 16:11:14;;;;;;;65.10;28.70;;;;;;;-3.82;86.74;100146.34;102002;1313;87382;-60
2022/12/15 16:13:48;;;;;;;62.00;27.40;;;;;;;-3.74;86.55;100153.66;101979;1313;94874;-59
2022/12/15 16:16:24;;;;;;;;;;;;;;;-3.73;86.72;100161.75;101933;1313;80935;-60
2022/12/15 16:18:59;;;;;;;69.30;30.10;;;;;;;-3.76;86.89;100169.34;102004;1313;80045;-63
2022/12/15 16:21:36;;;;;;;66.00;30.80;;;;;;;-3.72;86.79;100172.92;101976;1313;98188;-62
2022/12/15 16:24:18;;;;;;;62.20;32.60;;;;;;;-3.67;86.51;100172.77;102084;1313;88845;-60
2022/12/15 16:26:56;;;;;;;59.80;29.30;;;;;;;-3.69;86.66;100181.88;102039;1313;94865;-64
2022/12/15 16:29:30;;;;;;;54.40;27.40;;;;;;;-3.70;86.43;100185.42;102055;1310;80125;-60
2022/12/15 16:32:11;;;;;;;62.60;29.70;;;;;;;-3.72;86.44;100188.23;102075;1313;81954;-59
2022/12/15 16:34:45;;;;;;;62.30;27.70;;;;;;;-3.75;86.91;100200.00;102095;1313;97449;-61
2022/12/15 16:37:29;;;;;;;62.20;28.70;;;;;;;-3.73;86.70;100203.98;102131;1310;87675;-62
2022/12/15 16:40:22;;;;;;;66.10;28.70;;;;;;;-3.75;86.71;100199.37;102082;1309;94799;-60
2022/12/15 16:43:00;;;;;;;62.70;29.80;;;;;;;-3.79;86.92;100200.86;102097;1310;81579;-61
2022/12/15 16:45:36;;;;;;;67.00;31.00;;;;;;;-3.78;87.02;100202.89;102093;1310;82369;-61
2022/12/15 16:48:14;;;;;;;66.90;30.00;;;;;;;-3.81;86.97;100209.20;102143;1310;97494;-61
2022/12/15 16:50:52;;;;;;;60.20;30.00;;;;;;;-3.78;87.09;100215.88;102011;1313;88794;-61
2022/12/15 16:53:30;;;;;;;60.80;29.00;;;;;;;-3.74;86.85;100219.14;102044;1310;94275;-60
2022/12/15 16:56:14;;;;;;;65.10;28.00;;;;;;;-3.62;86.96;100219.34;102054;1313;80116;-61
2022/12/15 16:58:49;;;;;;;62.70;28.00;;;;;;;-3.56;86.79;100223.35;102058;1310;82619;-60
2022/12/15 17:01:26;;;;;;;61.50;29.60;;;;;;;-3.55;86.75;100221.55;102058;1310;97143;-61
2022/12/15 17:04:03;;;;;;;56.10;27.60;;;;;;;-3.52;86.84;100222.22;102056;1313;87919;-61
2022/12/15 17:06:38;;;;;;;53.40;27.40;;;;;;;-3.51;86.72;100221.06;102075;1313;94094;-60
2022/12/15 17:09:19;;;;;;;64.70;30.20;;;;;;;-3.54;86.56;100217.27;102002;1314;79967;-58
2022/12/15 17:11:58;;;;;;;61.30;30.10;;;;;;;-3.60;86.80;100221.02;102084;1313;81997;-61
2022/12/15 17:14:37;;;;;;;70.30;31.50;;;;;;;-3.68;86.85;100223.16;102024;1313;95702;-59
2022/12/15 17:17:18;;;;;;;61.10;29.80;;;;;;;-3.69;86.99;100230.24;102064;1310;88623;-59
2022/12/15 17:19:54;;;;;;;65.20;32.10;;;;;;;-3.69;86.96;100232.55;102077;1309;93926;-60
2022/12/15 17:22:34;;;;;;;68.90;33.10;;;;;;;-3.73;86.89;100243.35;102124;1313;79831;-60
2022/12/15 17:25:16;;;;;;;64.10;31.20;;;;;;;-3.70;86.89;100247.52;101984;1312;82360;-60
2022/12/15 17:27:56;;;;;;;65.80;31.40;;;;;;;-3.70;86.84;100244.88;102098;1309;97443;-61
2022/12/15 17:30:41;;;;;;;61.60;29.70;;;;;;;-3.66;86.86;100238.15;102099;1313;89152;-59
2022/12/15 17:33:22;;;;;;;66.20;30.70;;;;;;;-3.62;87.00;100230.79;102079;1313;93849;-61
2022/12/15 17:36:01;;;;;;;64.50;31.90;;;;;;;-3.60;87.00;100231.39;102032;1313;80333;-61
2022/12/15 17:38:36;;;;;;;63.90;32.00;;;;;;;-3.58;87.19;100229.50;102143;1311;82061;-59
2022/12/15 17:41:14;;;;;;;58.70;29.30;;;;;;;-3.61;87.02;100226.02;102132;1307;97517;-60
2022/12/15 17:43:48;;;;;;;58.90;29.40;;;;;;;-3.58;87.09;100227.75;102139;1310;88291;-61
2022/12/15 17:46:29;;;;;;;67.90;34.80;;;;;;;-3.54;86.87;100229.58;102123;1310;95343;-61
2022/12/15 17:49:06;;;;;;;64.50;33.20;;;;;;;-3.44;86.53;100227.95;102119;1310;79398;-60
2022/12/15 17:51:39;;;;;;;65.40;33.00;;;;;;;-3.44;86.74;100225.20;102196;1308;81885;-60
2022/12/15 17:54:19;;;;;;;72.30;33.40;;;;;;;-3.43;86.98;100229.70;102175;1310;96564;-59
2022/12/15 17:56:57;;;;;;;68.60;33.30;;;;;;;-3.50;86.89;100229.32;102163;1311;88191;-62
2022/12/15 17:59:34;;;;;;;72.00;34.70;;;;;;;-3.55;86.80;100229.43;102142;1310;94014;-61
2022/12/15 18:02:12;;;;;;;76.50;35.90;;;;;;;-3.59;86.58;100233.08;102140;1309;81928;-62
2022/12/15 18:04:49;;;;;;;83.20;39.00;;;;;;;-3.61;86.95;100237.82;102138;1311;82078;-62
2022/12/15 18:07:26;;;;;;;74.60;37.90;;;;;;;-3.61;86.89;100234.08;102179;1310;97355;-63
2022/12/15 18:10:02;;;;;;;80.90;37.20;;;;;;;-3.62;86.73;100231.86;102205;1310;88456;-63
2022/12/15 18:12:37;;;;;;;81.50;37.50;;;;;;;-3.66;86.83;100233.52;102244;1306;95040;-63
2022/12/15 18:15:21;;;;;;;88.10;40.50;;;;;;;-3.65;86.85;100230.50;102217;1306;80557;-65
2022/12/15 18:17:56;;;;;;;73.50;37.30;;;;;;;-3.65;86.83;100228.69;102244;1310;83631;-60
2022/12/15 18:20:33;;;;;;;76.00;37.60;;;;;;;-3.61;86.70;100237.39;102215;1307;96889;-64
2022/12/15 18:23:15;;;;;;;70.20;36.60;;;;;;;-3.55;86.89;100239.27;102245;1307;86076;-63
2022/12/15 18:25:49;;;;;;;63.30;33.00;;;;;;;-3.49;86.90;100241.70;102179;1306;94947;-64
2022/12/15 18:28:26;;;;;;;;;;;;;;;-3.45;86.88;100238.78;102208;1307;80538;-64
2022/12/15 18:31:10;;;;;;;66.30;33.00;;;;;;;-3.43;86.85;100240.57;102187;1311;82624;-64
2022/12/15 18:33:50;;;;;;;68.30;34.00;;;;;;;-3.43;86.83;100243.62;102190;1308;97651;-63
2022/12/15 18:36:27;;;;;;;68.60;34.70;;;;;;;-3.47;87.06;100243.34;102190;1310;89408;-62
2022/12/15 18:39:02;;;;;;;64.30;34.10;;;;;;;-3.48;86.82;100246.05;102201;1307;94344;-64
2022/12/15 18:41:44;;;;;;;69.50;36.20;;;;;;;-3.48;86.79;100247.31;102174;1310;78704;-63
2022/12/15 18:44:25;;;;;;;66.40;33.50;;;;;;;-3.50;86.74;100247.06;102213;1307;82016;-62
2022/12/15 18:47:02;;;;;;;68.70;33.80;;;;;;;-3.53;86.72;100255.90;102198;1310;98270;-61
2022/12/15 18:49:39;;;;;;;63.40;31.90;;;;;;;-3.56;86.78;100251.50;102199;1307;88544;-63
2022/12/15 18:52:18;;;;;;;69.20;33.60;;;;;;;-3.61;86.68;100253.29;102195;1310;94766;-62
2022/12/15 18:54:56;;;;;;;72.10;37.20;;;;;;;-3.63;86.84;100253.55;102226;1310;81045;-61
2022/12/15 18:57:35;;;;;;;71.30;36.30;;;;;;;-3.64;86.76;100258.20;102222;1307;82385;-62
2022/12/15 19:00:26;;;;;;;69.40;35.40;;;;;;;-3.61;86.77;100260.15;102183;1310;99727;-62
2022/12/15 19:03:06;;;;;;;73.40;35.80;;;;;;;-3.64;86.69;100265.44;102188;1307;88859;-62
2022/12/15 19:05:49;;;;;;;63.60;32.90;;;;;;;-3.61;86.82;100263.66;102153;1307;94123;-62
2022/12/15 19:08:28;;;;;;;64.70;34.10;;;;;;;-3.57;86.85;100267.09;102184;1306;81989;-59
2022/12/15 19:11:07;;;;;;;61.20;32.60;;;;;;;-3.54;86.90;100270.58;102212;1307;82486;-61
2022/12/15 19:13:44;;;;;;;71.90;35.10;;;;;;;-3.50;86.80;100280.83;102140;1307;97270;-62
2022/12/15 19:16:22;;;;;;;70.80;35.00;;;;;;;-3.46;86.91;100285.00;102182;1310;88022;-64
2022/12/15 19:24:57;;;;;;;67.20;36.30;;;;;;;-3.45;87.22;100290.55;102232;1307;83149;-64
2022/12/15 19:27:46;;;;;;;68.20;33.30;;;;;;;-3.47;86.84;100295.23;102211;1306;97653;-61
2022/12/15 19:30:27;;;;;;;67.20;35.10;;;;;;;-3.51;86.76;100296.58;102174;1309;87985;-62
2022/12/15 19:33:02;;;;;;;66.80;33.50;;;;;;;-3.53;86.58;100302.21;102174;1309;95841;-62
2022/12/15 19:35:40;;;;;;;63.10;33.70;;;;;;;-3.56;86.48;100301.84;102170;1310;82205;-66
2022/12/15 19:38:26;;;;;;;67.40;34.70;;;;;;;-3.59;86.31;100289.17;102222;1307;81938;-62
2022/12/15 19:41:01;;;;;;;71.90;35.70;;;;;;;-3.58;86.25;100286.02;102200;1312;98442;-63
2022/12/15 19:43:37;;;;;;;64.70;32.60;;;;;;;-3.57;86.54;100286.65;102202;1307;89581;-63
2022/12/15 19:46:15;;;;;;;70.50;34.10;;;;;;;-3.58;86.60;100293.02;102187;1310;95013;-62
2022/12/15 19:48:52;;;;;;;72.50;35.20;;;;;;;-3.59;86.58;100285.84;102218;1307;79171;-61
2022/12/15 19:51:28;;;;;;;61.90;33.10;;;;;;;-3.57;86.50;100284.33;102162;1307;83944;-61
2022/12/15 19:54:06;;;;;;;59.10;31.80;;;;;;;-3.55;86.69;100283.45;102195;1307;97644;-61
2022/12/15 19:56:40;;;;;;;59.60;31.30;;;;;;;-3.51;86.52;100284.09;102174;1310;87951;-62
2022/12/15 19:59:23;;;;;;;61.50;32.30;;;;;;;-3.43;86.69;100288.31;102181;1307;95371;-61
2022/12/15 20:01:58;;;;;;;63.20;33.20;;;;;;;-3.39;86.76;100284.52;102173;1307;80256;-62
2022/12/15 20:04:34;;;;;;;63.70;32.40;;;;;;;-3.37;86.50;100286.13;102232;1311;85240;-62
2022/12/15 20:07:15;;;;;;;64.70;34.20;;;;;;;-3.37;86.50;100291.77;102174;1306;98400;-62
2022/12/15 20:09:50;;;;;;;60.60;33.70;;;;;;;-3.34;86.63;100292.61;102183;1307;89108;-61
2022/12/15 20:12:26;;;;;;;59.10;32.00;;;;;;;-3.32;86.24;100297.04;102159;1307;94591;-62
2022/12/15 20:15:03;;;;;;;58.60;30.20;;;;;;;-3.33;86.44;100299.77;102179;1310;78507;-65
2022/12/15 20:17:40;;;;;;;66.90;34.10;;;;;;;-3.33;86.02;100284.41;102214;1307;82040;-64
2022/12/15 20:20:16;;;;;;;;;;;;;;;-3.35;86.24;100284.91;102266;1310;99612;-61
2022/12/15 20:22:58;;;;;;;61.60;32.00;;;;;;;-3.39;86.24;100287.46;102258;1307;87264;-64
2022/12/15 20:25:37;;;;;;;68.70;33.20;;;;;;;-3.40;86.19;100289.71;102255;1309;93218;-62
2022/12/15 20:28:19;;;;;;;68.10;32.60;;;;;;;-3.42;85.73;100296.86;102204;1307;81819;-63
2022/12/15 20:30:58;;;;;;;66.10;31.20;;;;;;;-3.48;85.92;100296.91;102207;1306;83068;-63
2022/12/15 20:33:33;;;;;;;72.90;37.00;;;;;;;-3.55;86.05;100296.01;102137;1310;98757;-62
2022/12/15 20:36:16;;;;;;;80.70;39.70;;;;;;;-3.60;85.94;100296.84;102202;1311;87822;-62
2022/12/15 20:38:52;;;;;;;84.50;37.70;;;;;;;-3.66;85.82;100295.48;102167;1307;94592;-65
2022/12/15 20:41:29;;;;;;;78.20;36.50;;;;;;;-3.71;85.86;100291.58;102205;1310;80151;-63
2022/12/15 20:44:05;;;;;;;79.40;37.10;;;;;;;-3.77;85.82;100288.16;102188;1307;82648;-64
2022/12/15 20:46:40;;;;;;;77.70;38.10;;;;;;;-3.88;85.84;100284.86;102211;1310;98452;-64
2022/12/15 20:49:22;;;;;;;76.30;36.50;;;;;;;-3.94;85.60;100283.11;102209;1310;88903;-63
2022/12/15 20:51:57;;;;;;;74.60;37.20;;;;;;;-4.03;85.91;100288.14;102189;1306;95194;-63
2022/12/15 20:54:34;;;;;;;66.50;34.50;;;;;;;-4.11;86.19;100290.42;102236;1306;80133;-64
2022/12/15 20:57:08;;;;;;;66.20;32.90;;;;;;;-4.10;86.12;100289.64;102186;1307;82140;-64
2022/12/15 20:59:43;;;;;;;67.50;33.90;;;;;;;-4.08;85.95;100291.10;102190;1310;97646;-63
2022/12/15 21:02:24;;;;;;;75.90;36.80;;;;;;;-4.11;85.98;100288.28;102213;1310;88213;-62
2022/12/15 21:04:59;;;;;;;76.60;37.00;;;;;;;-4.19;86.03;100289.69;102165;1311;95735;-62
2022/12/15 21:07:33;;;;;;;63.90;32.60;;;;;;;-4.25;86.36;100286.71;102191;1310;80667;-63
2022/12/15 21:10:12;;;;;;;74.40;34.20;;;;;;;-4.26;85.85;100290.65;102220;1307;82811;-64
2022/12/15 21:12:56;;;;;;;68.30;34.80;;;;;;;-4.32;85.87;100293.00;102250;1307;99347;-63
2022/12/15 21:15:34;;;;;;;71.90;33.90;;;;;;;-4.46;85.90;100297.05;102279;1310;89840;-64
2022/12/15 21:18:15;;;;;;;67.40;34.40;;;;;;;-4.55;86.03;100299.77;102220;1310;94633;-64
2022/12/15 21:20:57;;;;;;;85.40;40.90;;;;;;;-4.61;86.12;100294.19;102169;1306;80215;-63
2022/12/15 21:23:35;;;;;;;136.60;52.50;;;;;;;-4.63;86.24;100299.73;102229;1310;82334;-61
2022/12/15 21:26:20;;;;;;;101.00;42.10;;;;;;;-4.67;85.96;100301.92;102265;1307;97624;-61
2022/12/15 21:29:01;;;;;;;86.80;39.00;;;;;;;-4.77;86.31;100302.49;102207;1307;88559;-61
2022/12/15 21:31:38;;;;;;;74.70;35.40;;;;;;;-4.82;86.45;100306.39;102175;1310;95316;-63
2022/12/15 21:34:15;;;;;;;69.90;35.90;;;;;;;-4.82;86.31;100306.54;102164;1307;81721;-65
2022/12/15 21:36:55;;;;;;;75.70;35.10;;;;;;;-4.86;86.65;100303.43;102177;1306;81041;-62
2022/12/15 21:39:34;;;;;;;70.70;36.20;;;;;;;-4.83;86.54;100302.02;102256;1307;97257;-62
2022/12/15 21:42:16;;;;;;;70.60;35.30;;;;;;;-4.82;86.42;100302.87;102205;1310;86682;-61
2022/12/15 21:44:50;;;;;;;81.80;39.00;;;;;;;-4.80;86.63;100302.58;102133;1313;94819;-63
2022/12/15 21:50:24;;;;;;;70.60;34.10;;;;;;;-4.88;86.74;100304.09;102189;1307;83642;-62
2022/12/15 21:53:02;;;;;;;69.60;34.70;;;;;;;-4.94;86.54;100311.52;102203;1306;98587;-63
2022/12/15 21:55:38;;;;;;;81.70;38.00;;;;;;;-4.98;86.66;100308.07;102150;1311;89864;-67
2022/12/15 21:58:23;;;;;;;76.60;36.50;;;;;;;-4.98;86.46;100300.19;102206;1306;96095;-61
2022/12/15 22:00:59;;;;;;;82.00;37.70;;;;;;;-4.96;86.34;100302.31;102250;1307;80085;-60
2022/12/15 22:03:35;;;;;;;77.10;37.00;;;;;;;-4.99;86.69;100304.59;102164;1309;83302;-60
2022/12/15 22:06:20;;;;;;;73.00;35.30;;;;;;;-4.96;86.56;100303.52;102230;1307;98031;-61
2022/12/15 22:08:58;;;;;;;67.10;33.00;;;;;;;-4.89;86.63;100288.37;102214;1307;88650;-61
2022/12/15 22:11:36;;;;;;;69.50;34.60;;;;;;;-4.91;86.63;100283.09;102138;1311;92739;-61
2022/12/15 22:14:24;;;;;;;69.00;35.10;;;;;;;-4.93;86.72;100283.56;102180;1310;81692;-61
2022/12/15 22:17:01;;;;;;;64.80;32.50;;;;;;;-4.98;86.69;100280.85;102159;1310;81796;-63
2022/12/15 22:19:40;;;;;;;65.30;32.20;;;;;;;-4.96;86.79;100281.44;102177;1307;97045;-62
2022/12/15 22:22:18;;;;;;;71.40;34.00;;;;;;;-5.00;86.92;100281.86;102200;1307;87824;-61
2022/12/15 22:24:55;;;;;;;65.50;32.50;;;;;;;-5.01;87.00;100292.99;102219;1307;94307;-62
2022/12/15 22:27:34;;;;;;;66.50;32.70;;;;;;;-5.04;86.67;100299.83;102204;1310;79193;-65
2022/12/15 22:30:18;;;;;;;65.50;32.80;;;;;;;-5.09;86.89;100305.05;102249;1310;79734;-62
2022/12/15 22:32:53;;;;;;;47.10;26.20;;;;;;;-5.04;87.00;100304.23;102209;1310;98965;-63
2022/12/15 22:35:32;;;;;;;63.90;33.60;;;;;;;-5.06;86.77;100307.72;102289;1310;87498;-65
2022/12/15 22:38:08;;;;;;;61.10;31.80;;;;;;;-5.11;86.78;100310.09;102265;1308;94310;-63
2022/12/15 22:40:43;;;;;;;65.60;30.50;;;;;;;-5.11;86.69;100322.73;102259;1309;80625;-62
2022/12/15 22:43:29;;;;;;;64.60;31.50;;;;;;;-5.14;86.74;100322.77;102207;1310;83064;-59
2022/12/15 22:46:05;;;;;;;66.00;31.40;;;;;;;-5.18;86.93;100325.96;102247;1307;97714;-66
2022/12/15 22:48:46;;;;;;;62.30;31.00;;;;;;;-5.18;86.89;100327.73;102280;1308;88837;-64
2022/12/15 22:51:22;;;;;;;58.40;31.10;;;;;;;-5.14;87.08;100329.77;102187;1307;94833;-64
2022/12/15 22:53:56;;;;;;;63.50;31.00;;;;;;;-5.09;87.03;100328.41;102189;1307;82144;-63
2022/12/15 22:56:39;;;;;;;63.00;30.60;;;;;;;-5.09;87.18;100324.04;102193;1308;82279;-64
2022/12/15 22:59:26;;;;;;;59.10;29.40;;;;;;;-5.07;86.88;100329.52;102210;1313;98727;-64
2022/12/15 23:02:02;;;;;;;56.70;29.10;;;;;;;-5.05;87.11;100331.69;102195;1307;89510;-64
2022/12/15 23:04:41;;;;;;;64.40;31.90;;;;;;;-4.99;87.19;100329.38;102233;1307;91959;-65
2022/12/15 23:07:16;;;;;;;56.10;29.10;;;;;;;-4.96;87.45;100325.66;102211;1310;81448;-63
2022/12/15 23:11:35;;;;;;;61.10;29.60;;;;;;;-4.88;87.27;100323.77;102209;1308;80524;-64
2022/12/15 23:12:56;;;;;;;62.10;30.30;;;;;;;-4.84;87.28;100316.14;102202;1307;96964;-63
2022/12/15 23:18:29;;;;;;;65.20;30.60;;;;;;;-4.75;87.20;100309.65;102240;1310;94459;-61